Zim Rio Grande — 9HNV9 — position and weather

sailwx.info

Track history (hours):
 
Tides and Currents Weather Stations Pressure Air Temp Water Temp Dewpoint Dewpoint Depression Visibility Wind Speed Wind Dir Waves Ship Positions

Zim Rio Grande

Last reported at 2017-Apr-26 04:34 UTC. Time now 2017-Apr-26 21:25 UTC.
Position N 01°14' E 104°03'.

Length 260 m; draft 11.3 m.

Type: Cargo ship. MMSI: 249253000.

Date/timePositionNaut miles runAvg speedWind from/ knotsBaromVisibWave heightAir tempDewpointWater temp
2017-Apr-26 04:34N 01°14' E 104°03'119.3
2017-Apr-26 04:30N 01°14' E 104°02'917.8
2017-Apr-26 04:00N 01°12' E 103°54'816.4
2017-Apr-26 03:30N 01°08' E 103°47'815.7
2017-Apr-26 03:00N 01°03' E 103°41'814.8
2017-Apr-26 02:30N 01°06' E 103°34'918.0
2017-Apr-26 02:00N 01°10' E 103°26'5218.8
2017-Apr-25 23:14N 01°39' E 102°42'1019.0
2017-Apr-25 22:41N 01°44' E 102°33'318.7
2017-Apr-25 22:30N 01°46' E 102°31'918.4
2017-Apr-25 22:00N 01°51' E 102°23'  
Track history (hours):
 
Tides and Currents Weather Stations Pressure Air Temp Water Temp Dewpoint Dewpoint Depression Visibility Wind Speed Wind Dir Waves Ship Positions

Zim Rio Grande

Last reported at 2017-Apr-26 04:34 UTC. Time now 2017-Apr-26 21:25 UTC.
Position N 01°14' E 104°03'.

Length 260 m; draft 11.3 m.

Type: Cargo ship. MMSI: 249253000.

Date/timePositionNaut miles runAvg speedWind from/ knotsBaromVisibWave heightAir tempDewpointWater temp
2017-Apr-26 04:34N 01°14' E 104°03'119.3
2017-Apr-26 04:30N 01°14' E 104°02'917.8
2017-Apr-26 04:00N 01°12' E 103°54'816.4
2017-Apr-26 03:30N 01°08' E 103°47'815.7
2017-Apr-26 03:00N 01°03' E 103°41'814.8
2017-Apr-26 02:30N 01°06' E 103°34'918.0
2017-Apr-26 02:00N 01°10' E 103°26'5218.8
2017-Apr-25 23:14N 01°39' E 102°42'1019.0
2017-Apr-25 22:41N 01°44' E 102°33'318.7
2017-Apr-25 22:30N 01°46' E 102°31'918.4
2017-Apr-25 22:00N 01°51' E 102°23'  

Dump ship's entire track history